createdAt,value
2018-11-27T00:02:17.639Z,96377.84
2018-11-27T00:04:44.816Z,96380.72
2018-11-27T00:07:12.025Z,96377.56
2018-11-27T00:09:39.185Z,96380.20
2018-11-27T00:12:06.394Z,96381.25
2018-11-27T00:14:33.599Z,96385.64
2018-11-27T00:17:00.814Z,96386.45
2018-11-27T00:19:27.955Z,96391.91
2018-11-27T00:21:55.136Z,96392.19
2018-11-27T00:24:22.305Z,96391.69
2018-11-27T00:26:49.530Z,96397.46
2018-11-27T00:29:16.745Z,96397.46
2018-11-27T00:31:43.927Z,96400.64
2018-11-27T00:34:11.123Z,96398.06
2018-11-27T00:36:38.277Z,96401.17
2018-11-27T00:39:07.739Z,96402.93
2018-11-27T00:41:35.758Z,96409.52
2018-11-27T00:44:03.023Z,96403.78
2018-11-27T00:46:30.217Z,96407.42
2018-11-27T00:48:57.383Z,96401.98
2018-11-27T00:51:24.546Z,96405.34
2018-11-27T00:53:51.723Z,96399.36
2018-11-27T00:56:18.916Z,96408.45
2018-11-27T00:58:46.118Z,96409.96
2018-11-27T01:01:13.243Z,96414.92
2018-11-27T01:03:40.413Z,96411.29
2018-11-27T01:06:07.554Z,96418.09
2018-11-27T01:08:34.722Z,96420.42
2018-11-27T01:11:01.939Z,96419.44
2018-11-27T01:13:29.134Z,96420.23
2018-11-27T01:15:56.324Z,96431.94
2018-11-27T01:18:23.507Z,96426.23
2018-11-27T01:20:50.770Z,96430.95
2018-11-27T01:23:17.951Z,96437.77
2018-11-27T01:25:45.175Z,96439.30
2018-11-27T01:28:12.394Z,96439.05
2018-11-27T01:30:39.604Z,96449.20
2018-11-27T01:33:06.810Z,96449.45
2018-11-27T01:35:34.063Z,96451.84
2018-11-27T01:38:01.247Z,96453.66
2018-11-27T01:40:28.456Z,96454.69
2018-11-27T01:42:56.497Z,96457.59
2018-11-27T01:45:24.262Z,96460.69
2018-11-27T01:47:51.517Z,96462.77
2018-11-27T01:50:19.257Z,96463.31
2018-11-27T01:52:46.535Z,96459.40
2018-11-27T01:55:14.503Z,96460.16
2018-11-27T01:57:41.696Z,96461.80
2018-11-27T02:00:22.399Z,96456.85
2018-11-27T02:02:49.908Z,96461.80
2018-11-27T02:05:17.138Z,96465.65
2018-11-27T02:07:44.286Z,96460.37
2018-11-27T02:10:11.955Z,96458.88
2018-11-27T02:12:40.046Z,96464.84
2018-11-27T02:15:09.470Z,96465.39
2018-11-27T02:17:36.687Z,96465.89
2018-11-27T02:20:04.623Z,96470.64
2018-11-27T02:22:31.851Z,96472.17
2018-11-27T02:24:58.991Z,96471.98
2018-11-27T02:27:26.198Z,96472.50
2018-11-27T02:29:53.383Z,96469.78
2018-11-27T02:32:20.544Z,96473.75
2018-11-27T02:34:47.709Z,96466.80
2018-11-27T02:37:14.962Z,96473.84
2018-11-27T02:39:42.154Z,96472.55
2018-11-27T02:42:09.359Z,96474.64
2018-11-27T02:44:36.547Z,96472.84
2018-11-27T02:47:03.790Z,96473.91
2018-11-27T02:49:30.977Z,96474.11
2018-11-27T02:51:58.149Z,96479.09
2018-11-27T02:54:25.299Z,96483.27
2018-11-27T02:56:52.460Z,96482.02
2018-11-27T02:59:19.639Z,96486.73
2018-11-27T03:01:46.824Z,96491.09
2018-11-27T03:04:13.981Z,96494.25
2018-11-27T03:06:41.139Z,96496.06
2018-11-27T03:09:08.719Z,96490.08
2018-11-27T03:11:36.133Z,96496.89
2018-11-27T03:14:03.409Z,96497.14
2018-11-27T03:16:30.634Z,96500.84
2018-11-27T03:18:57.814Z,96498.92
2018-11-27T03:21:25.004Z,96497.67
2018-11-27T03:23:52.185Z,96503.16
2018-11-27T03:26:19.394Z,96495.33
2018-11-27T03:28:46.572Z,96498.72
2018-11-27T03:31:13.741Z,96500.80
2018-11-27T03:33:40.942Z,96503.65
2018-11-27T03:36:08.142Z,96507.05
2018-11-27T03:38:35.325Z,96515.45
2018-11-27T03:41:02.616Z,96514.16
2018-11-27T03:43:29.809Z,96508.41
2018-11-27T03:45:57.021Z,96520.42
2018-11-27T03:48:24.204Z,96522.48
2018-11-27T03:50:51.387Z,96520.14
2018-11-27T03:53:18.570Z,96521.45
2018-11-27T03:55:45.874Z,96529.02
2018-11-27T03:58:13.106Z,96528.75
2018-11-27T04:00:40.304Z,96527.22
2018-11-27T04:03:09.775Z,96526.70
2018-11-27T04:05:37.360Z,96526.67
2018-11-27T04:08:05.774Z,96529.53
2018-11-27T04:10:32.992Z,96530.56
2018-11-27T04:13:00.214Z,96528.70
2018-11-27T04:15:27.469Z,96530.58
2018-11-27T04:17:54.621Z,96525.83
2018-11-27T04:20:21.765Z,96527.70
2018-11-27T04:22:48.935Z,96535.27
2018-11-27T04:25:16.875Z,96535.84
2018-11-27T04:27:44.735Z,96540.00
2018-11-27T04:30:12.961Z,96540.00
2018-11-27T04:32:40.413Z,96540.78
2018-11-27T04:35:09.056Z,96545.48
2018-11-27T04:37:36.204Z,96542.11
2018-11-27T04:40:04.027Z,96546.78
2018-11-27T04:42:31.170Z,96544.17
2018-11-27T04:44:58.383Z,96536.62
2018-11-27T04:47:25.588Z,96544.97
2018-11-27T04:49:52.771Z,96547.84
2018-11-27T04:52:19.894Z,96550.97
2018-11-27T04:54:47.079Z,96553.84
2018-11-27T04:57:14.260Z,96553.58
2018-11-27T04:59:41.447Z,96556.19
2018-11-27T05:02:08.638Z,96557.73
2018-11-27T05:04:35.851Z,96564.27
2018-11-27T05:07:03.071Z,96567.39
2018-11-27T05:09:30.419Z,96565.27
2018-11-27T05:11:57.574Z,96570.52
2018-11-27T05:14:24.701Z,96574.17
2018-11-27T05:16:51.836Z,96573.67
2018-11-27T05:19:19.015Z,96585.91
2018-11-27T05:21:46.167Z,96590.33
2018-11-27T05:24:13.348Z,96590.08
2018-11-27T05:26:40.542Z,96595.53
2018-11-27T05:29:07.682Z,96596.58
2018-11-27T05:31:34.861Z,96601.30
2018-11-27T05:34:02.022Z,96603.38
2018-11-27T05:36:29.203Z,96603.64
2018-11-27T05:38:56.410Z,96603.90
2018-11-27T05:41:23.629Z,96603.38
2018-11-27T05:43:50.730Z,96610.14
2018-11-27T05:46:17.931Z,96614.59
2018-11-27T05:48:45.156Z,96616.66
2018-11-27T05:51:12.377Z,96623.17
2018-11-27T05:53:39.608Z,96621.08
2018-11-27T05:56:06.764Z,96622.93
2018-11-27T05:58:33.948Z,96621.61
2018-11-27T06:01:01.157Z,96629.19
2018-11-27T06:03:28.337Z,96623.70
2018-11-27T06:05:55.527Z,96628.38
2018-11-27T06:08:22.666Z,96631.00
2018-11-27T06:10:49.876Z,96631.52
2018-11-27T06:13:17.094Z,96639.33
2018-11-27T06:15:44.331Z,96632.56
2018-11-27T06:18:11.491Z,96635.42
2018-11-27T06:20:38.642Z,96637.50
2018-11-27T06:23:05.906Z,96640.63
2018-11-27T06:25:33.139Z,96641.40
2018-11-27T06:28:03.317Z,96650.02
2018-11-27T06:30:31.694Z,96652.89
2018-11-27T06:32:58.880Z,96666.17
2018-11-27T06:35:28.354Z,96663.55
2018-11-27T06:37:55.543Z,96666.14
2018-11-27T06:40:24.005Z,96671.63
2018-11-27T06:42:51.186Z,96680.77
2018-11-27T06:45:19.087Z,96684.67
2018-11-27T06:47:47.276Z,96685.16
2018-11-27T06:50:15.049Z,96689.62
2018-11-27T06:52:42.215Z,96697.17
2018-11-27T06:55:10.692Z,96693.50
2018-11-27T06:57:37.855Z,96695.87
2018-11-27T07:00:09.845Z,96698.48
2018-11-27T07:02:37.968Z,96709.42
2018-11-27T07:05:04.867Z,96706.81
2018-11-27T07:07:32.039Z,96709.95
2018-11-27T07:09:59.234Z,96714.63
2018-11-27T07:12:26.400Z,96711.50
2018-11-27T07:14:53.593Z,96715.38
2018-11-27T07:17:20.852Z,96720.36
2018-11-27T07:19:48.034Z,96722.70
2018-11-27T07:22:15.238Z,96726.09
2018-11-27T07:24:42.446Z,96728.41
2018-11-27T07:27:09.618Z,96729.71
2018-11-27T07:29:36.746Z,96737.81
2018-11-27T07:32:09.291Z,96736.77
2018-11-27T07:34:31.327Z,96737.30
2018-11-27T07:36:58.542Z,96744.30
2018-11-27T07:39:25.798Z,96744.30
2018-11-27T07:41:52.951Z,96749.21
2018-11-27T07:44:20.146Z,96746.91
2018-11-27T07:46:47.322Z,96747.16
2018-11-27T07:49:14.476Z,96751.30
2018-11-27T07:51:41.672Z,96752.11
2018-11-27T07:54:08.855Z,96754.42
2018-11-27T07:56:36.023Z,96760.70
2018-11-27T07:59:03.184Z,96761.72
2018-11-27T08:01:30.353Z,96769.56
2018-11-27T08:03:57.533Z,96773.47
2018-11-27T08:06:24.737Z,96768.27
2018-11-27T08:08:51.898Z,96780.02
2018-11-27T08:11:19.086Z,96780.80
2018-11-27T08:13:46.405Z,96780.77
2018-11-27T08:16:13.553Z,96780.50
2018-11-27T08:18:47.490Z,96785.50
2018-11-27T08:21:14.730Z,96790.19
2018-11-27T08:23:41.912Z,96789.17
2018-11-27T08:26:09.137Z,96796.73
2018-11-27T08:28:36.280Z,96803.52
2018-11-27T08:31:03.432Z,96808.20
2018-11-27T08:33:30.626Z,96806.14
2018-11-27T08:35:57.746Z,96814.45
2018-11-27T08:38:24.970Z,96814.23
2018-11-27T08:40:52.115Z,96816.55
2018-11-27T08:43:19.267Z,96812.86
2018-11-27T08:45:46.436Z,96814.94
2018-11-27T08:48:13.608Z,96829.61
2018-11-27T08:50:40.806Z,96827.52
2018-11-27T08:53:07.983Z,96831.66
2018-11-27T08:55:37.779Z,96833.00
2018-11-27T08:58:10.475Z,96831.17
2018-11-27T09:00:37.627Z,96830.13
2018-11-27T09:03:05.174Z,96838.53
2018-11-27T09:05:32.361Z,96837.72
2018-11-27T09:07:59.553Z,96842.12
2018-11-27T09:10:26.711Z,96845.80
2018-11-27T09:12:53.910Z,96849.94
2018-11-27T09:15:21.878Z,96852.55
2018-11-27T09:17:55.636Z,96857.50
2018-11-27T09:20:22.855Z,96857.02
2018-11-27T09:22:50.077Z,96865.09
2018-11-27T09:25:17.312Z,96861.44
2018-11-27T09:27:44.467Z,96870.31
2018-11-27T09:30:15.826Z,96872.42
2018-11-27T09:32:43.010Z,96876.86
2018-11-27T09:35:10.286Z,96878.16
2018-11-27T09:37:37.507Z,96876.86
2018-11-27T09:40:07.265Z,96883.14
2018-11-27T09:42:34.432Z,96875.30
2018-11-27T09:45:01.560Z,96869.30
2018-11-27T09:47:28.762Z,96873.99
2018-11-27T09:49:55.990Z,96878.94
2018-11-27T09:52:23.170Z,96878.97
2018-11-27T09:54:50.302Z,96881.58
2018-11-27T09:57:17.490Z,96879.51
2018-11-27T09:59:44.681Z,96886.32
2018-11-27T10:02:11.835Z,96889.72
2018-11-27T10:04:38.959Z,96894.41
2018-11-27T10:07:06.129Z,96894.64
2018-11-27T10:09:33.306Z,96897.79
2018-11-27T10:12:00.479Z,96899.87
2018-11-27T10:14:27.621Z,96899.88
2018-11-27T10:16:54.798Z,96903.78
2018-11-27T10:19:26.744Z,96895.45
2018-11-27T10:21:49.538Z,96895.97
2018-11-27T10:24:16.736Z,96898.31
2018-11-27T10:26:44.966Z,96904.86
2018-11-27T10:29:12.144Z,96900.41
2018-11-27T10:31:39.619Z,96898.58
2018-11-27T10:34:06.859Z,96901.72
2018-11-27T10:36:35.151Z,96905.91
2018-11-27T10:39:02.827Z,96904.84
2018-11-27T10:41:30.286Z,96901.19
2018-11-27T10:43:58.245Z,96911.09
2018-11-27T10:46:25.415Z,96907.47
2018-11-27T10:48:52.919Z,96904.84
2018-11-27T10:51:21.095Z,96913.22
2018-11-27T10:53:50.021Z,96909.55
2018-11-27T10:56:17.139Z,96911.91
2018-11-27T10:58:44.307Z,96909.55
2018-11-27T11:01:18.796Z,96916.61
2018-11-27T11:03:46.042Z,96922.34
2018-11-27T11:06:13.199Z,96926.78
2018-11-27T11:08:41.658Z,96928.31
2018-11-27T11:11:08.994Z,96930.70
2018-11-27T11:13:36.278Z,96932.26
2018-11-27T11:16:03.454Z,96937.22
2018-11-27T11:18:32.007Z,96935.91
2018-11-27T11:20:59.161Z,96935.13
2018-11-27T11:23:26.559Z,96932.53
2018-11-27T11:25:53.814Z,96934.61
2018-11-27T11:28:23.452Z,96929.66
2018-11-27T11:30:52.919Z,96931.48
2018-11-27T11:33:21.655Z,96930.94
2018-11-27T11:35:48.805Z,96926.00
2018-11-27T11:38:16.009Z,96925.73
2018-11-27T11:40:43.202Z,96930.16
2018-11-27T11:43:10.448Z,96927.55
2018-11-27T11:45:37.640Z,96919.45
2018-11-27T11:48:07.135Z,96926.52
2018-11-27T11:50:34.640Z,96919.69
2018-11-27T11:53:04.615Z,96922.59
2018-11-27T11:55:31.805Z,96922.59
2018-11-27T11:58:00.031Z,96922.61
2018-11-27T12:00:32.043Z,96927.03
2018-11-27T12:02:59.732Z,96921.83
2018-11-27T12:05:26.899Z,96925.22
2018-11-27T12:07:54.079Z,96932.80
2018-11-27T12:10:22.859Z,96934.89
2018-11-27T12:12:52.747Z,96935.91
2018-11-27T12:15:21.177Z,96945.34
2018-11-27T12:17:49.559Z,96945.05
2018-11-27T12:20:17.779Z,96941.41
2018-11-27T12:22:48.942Z,96944.80
2018-11-27T12:25:16.164Z,96948.46
2018-11-27T12:27:43.419Z,96949.50
2018-11-27T12:30:15.506Z,96952.37
2018-11-27T12:32:42.666Z,96950.03
2018-11-27T12:35:10.783Z,96949.75
2018-11-27T12:37:38.023Z,96959.95
2018-11-27T12:40:13.263Z,96957.59
2018-11-27T12:42:42.764Z,96962.28
2018-11-27T12:45:12.031Z,96958.63
2018-11-27T12:47:39.349Z,96955.77
2018-11-27T12:51:10.099Z,96964.12
2018-11-27T12:53:38.273Z,96966.46
2018-11-27T12:56:07.618Z,96975.10
2018-11-27T12:58:34.765Z,96983.98
2018-11-27T13:01:03.527Z,96981.34
2018-11-27T13:03:30.657Z,96978.47
2018-11-27T13:05:59.267Z,96979.54
2018-11-27T13:08:27.903Z,96974.56
2018-11-27T13:10:55.067Z,96979.78
2018-11-27T13:13:22.259Z,96978.48
2018-11-27T13:15:49.574Z,96976.39
2018-11-27T13:18:16.899Z,96978.19
2018-11-27T13:20:44.010Z,96982.63
2018-11-27T13:23:11.234Z,96984.98
2018-11-27T13:25:39.318Z,96991.24
2018-11-27T13:28:09.876Z,96993.07
2018-11-27T13:31:11.818Z,96994.41
2018-11-27T13:33:45.102Z,96992.55
2018-11-27T13:36:12.307Z,97000.08
2018-11-27T13:38:40.405Z,97012.31
2018-11-27T13:41:10.896Z,97002.44
2018-11-27T13:43:38.191Z,97008.13
2018-11-27T13:46:06.890Z,97006.13
2018-11-27T13:48:34.054Z,97006.61
2018-11-27T13:51:02.361Z,97004.70
2018-11-27T13:53:29.707Z,97004.78
2018-11-27T13:55:56.710Z,97008.92
2018-11-27T13:58:23.994Z,97009.48
2018-11-27T14:00:51.942Z,97010.52
2018-11-27T14:03:19.151Z,97009.12
2018-11-27T14:05:46.337Z,97007.30
2018-11-27T14:08:13.557Z,97004.75
2018-11-27T14:10:41.510Z,97011.78
2018-11-27T14:13:09.802Z,97015.70
2018-11-27T14:15:37.389Z,97019.66
2018-11-27T14:18:04.952Z,97017.23
2018-11-27T14:20:32.174Z,97020.14
2018-11-27T14:23:01.615Z,97021.64
2018-11-27T14:25:28.819Z,97021.09
2018-11-27T14:27:56.117Z,97025.72
2018-11-27T14:30:25.496Z,97025.83
2018-11-27T14:32:53.112Z,97027.55
2018-11-27T14:35:21.299Z,97033.19
2018-11-27T14:37:50.538Z,97039.19
2018-11-27T14:40:19.831Z,97038.92
2018-11-27T14:42:47.644Z,97045.96
2018-11-27T14:45:17.577Z,97052.16
2018-11-27T14:47:46.437Z,97050.31
2018-11-27T14:50:13.703Z,97058.66
2018-11-27T14:52:41.112Z,97053.09
2018-11-27T14:55:10.851Z,97066.13
2018-11-27T14:57:38.071Z,97072.63
2018-11-27T15:00:08.635Z,97071.83
2018-11-27T15:02:35.882Z,97070.56
2018-11-27T15:05:03.171Z,97065.84
2018-11-27T15:07:30.397Z,97076.94
2018-11-27T15:09:57.658Z,97077.72
2018-11-27T15:12:24.969Z,97082.08
2018-11-27T15:14:52.192Z,97085.16
2018-11-27T15:17:19.431Z,97085.69
2018-11-27T15:19:46.661Z,97092.39
2018-11-27T15:22:13.874Z,97088.98
2018-11-27T15:24:41.457Z,97093.84
2018-11-27T15:27:08.689Z,97095.63
2018-11-27T15:29:35.938Z,97101.61
2018-11-27T15:32:03.257Z,97108.23
2018-11-27T15:34:30.505Z,97106.11
2018-11-27T15:36:57.753Z,97115.16
2018-11-27T15:39:24.935Z,97121.47
2018-11-27T15:41:52.199Z,97119.64
2018-11-27T15:44:19.441Z,97118.11
2018-11-27T15:46:46.719Z,97124.05
2018-11-27T15:49:13.928Z,97126.50
2018-11-27T15:51:41.174Z,97128.55
2018-11-27T15:54:08.430Z,97131.25
2018-11-27T15:56:35.711Z,97131.72
2018-11-27T15:59:02.973Z,97134.66
2018-11-27T16:01:30.296Z,97142.84
2018-11-27T16:03:57.474Z,97134.80
2018-11-27T16:06:24.828Z,97140.08
2018-11-27T16:08:52.088Z,97144.68
2018-11-27T16:11:19.303Z,97146.88
2018-11-27T16:13:49.175Z,97148.90
2018-11-27T16:16:13.949Z,97150.16
2018-11-27T16:18:41.200Z,97151.33
2018-11-27T16:21:08.479Z,97156.66
2018-11-27T16:23:35.671Z,97157.16
2018-11-27T16:26:02.856Z,97154.70
2018-11-27T16:28:30.586Z,97155.37
2018-11-27T16:31:05.542Z,97160.31
2018-11-27T16:33:32.743Z,97164.69
2018-11-27T16:35:59.982Z,97173.14
2018-11-27T16:38:27.198Z,97173.14
2018-11-27T16:40:54.547Z,97178.73
2018-11-27T16:43:21.749Z,97190.05
2018-11-27T16:45:49.026Z,97184.78
2018-11-27T16:48:16.243Z,97194.90
2018-11-27T16:50:43.473Z,97193.61
2018-11-27T16:53:10.694Z,97199.31
2018-11-27T16:55:37.835Z,97195.64
2018-11-27T16:58:05.228Z,97203.69
2018-11-27T17:00:33.452Z,97205.86
2018-11-27T17:03:02.803Z,97202.61
2018-11-27T17:05:31.303Z,97211.34
2018-11-27T17:07:58.487Z,97205.32
2018-11-27T17:10:25.692Z,97208.97
2018-11-27T17:12:54.247Z,97205.73
2018-11-27T17:15:23.692Z,97209.45
2018-11-27T17:17:50.887Z,97211.51
2018-11-27T17:20:21.500Z,97213.94
2018-11-27T17:22:48.939Z,97221.72
2018-11-27T17:25:22.840Z,97222.86
2018-11-27T17:27:50.476Z,97225.28
2018-11-27T17:30:20.299Z,97220.95
2018-11-27T17:32:47.650Z,97225.66
2018-11-27T17:35:14.797Z,97229.17
2018-11-27T17:37:42.002Z,97233.53
2018-11-27T17:40:10.727Z,97232.60
2018-11-27T17:42:37.981Z,97241.25
2018-11-27T17:45:10.891Z,97247.87
2018-11-27T17:47:38.125Z,97253.17
2018-11-27T17:50:07.127Z,97252.19
2018-11-27T17:52:34.282Z,97253.22
2018-11-27T17:55:01.558Z,97261.98
2018-11-27T17:57:28.811Z,97256.64
2018-11-27T17:59:56.321Z,97255.11
2018-11-27T18:02:23.493Z,97258.17
2018-11-27T18:04:50.672Z,97262.70
2018-11-27T18:07:17.970Z,97257.74
2018-11-27T18:09:45.147Z,97259.06
2018-11-27T18:12:12.276Z,97267.06
2018-11-27T18:14:39.529Z,97275.43
2018-11-27T18:17:06.974Z,97278.73
2018-11-27T18:19:34.203Z,97278.84
2018-11-27T18:22:01.483Z,97282.73
2018-11-27T18:24:28.730Z,97283.84
2018-11-27T18:26:56.285Z,97285.17
2018-11-27T18:29:23.573Z,97292.72
2018-11-27T18:31:51.151Z,97300.48
2018-11-27T18:34:18.396Z,97293.68
2018-11-27T18:36:45.670Z,97302.98
2018-11-27T18:39:12.889Z,97302.02
2018-11-27T18:41:40.073Z,97306.42
2018-11-27T18:44:08.451Z,97306.36
2018-11-27T18:46:35.673Z,97312.05
2018-11-27T18:49:09.628Z,97314.92
2018-11-27T18:51:36.948Z,97321.45
2018-11-27T18:54:04.544Z,97322.67
2018-11-27T18:56:31.757Z,97321.75
2018-11-27T18:58:59.004Z,97326.71
2018-11-27T19:01:26.186Z,97318.78
2018-11-27T19:03:53.450Z,97316.38
2018-11-27T19:06:20.675Z,97323.78
2018-11-27T19:08:47.861Z,97327.91
2018-11-27T19:11:15.078Z,97331.47
2018-11-27T19:13:42.293Z,97334.49
2018-11-27T19:16:09.624Z,97329.38
2018-11-27T19:18:36.863Z,97331.73
2018-11-27T19:21:04.328Z,97338.46
2018-11-27T19:23:31.538Z,97333.05
2018-11-27T19:25:58.805Z,97333.56
2018-11-27T19:28:26.175Z,97335.56
2018-11-27T19:30:53.335Z,97339.31
2018-11-27T19:33:20.549Z,97341.63
2018-11-27T19:35:47.735Z,97347.14
2018-11-27T19:38:16.542Z,97349.51
2018-11-27T19:40:43.775Z,97353.12
2018-11-27T19:43:11.015Z,97354.29
2018-11-27T19:58:37.803Z,97354.14
2018-11-27T20:01:05.578Z,97372.91
2018-11-27T20:03:32.796Z,97369.07
2018-11-27T20:06:00.008Z,97363.50
2018-11-27T20:08:27.229Z,97365.03
2018-11-27T20:10:54.629Z,97360.11
2018-11-27T20:13:21.886Z,97371.72
2018-11-27T20:15:49.111Z,97369.94
2018-11-27T20:18:16.406Z,97376.34
2018-11-27T20:20:43.632Z,97379.30
2018-11-27T20:23:10.884Z,97382.91
2018-11-27T20:25:38.154Z,97383.80
2018-11-27T20:28:06.819Z,97388.97
2018-11-27T20:30:34.488Z,97389.09
2018-11-27T20:33:02.791Z,97391.14
2018-11-27T20:35:30.917Z,97395.37
2018-11-27T20:38:00.265Z,97395.47
2018-11-27T20:40:27.523Z,97402.08
2018-11-27T20:42:54.765Z,97399.64
2018-11-27T20:45:23.347Z,97405.75
2018-11-27T20:47:53.945Z,97409.86
2018-11-27T20:50:22.271Z,97406.85
2018-11-27T20:52:49.506Z,97413.56
2018-11-27T20:55:17.094Z,97409.80
2018-11-27T20:57:47.543Z,97414.84
2018-11-27T21:00:19.422Z,97416.30
2018-11-27T21:02:46.715Z,97419.33
2018-11-27T21:05:13.860Z,97419.73
2018-11-27T21:07:41.059Z,97426.75
2018-11-27T21:10:10.670Z,97430.52
2018-11-27T21:12:38.018Z,97428.34
2018-11-27T21:15:07.780Z,97435.94
2018-11-27T21:17:34.972Z,97437.80
2018-11-27T21:20:02.223Z,97437.74
2018-11-27T21:22:29.461Z,97437.41
2018-11-27T21:24:56.690Z,97435.38
2018-11-27T21:27:24.051Z,97441.35
2018-11-27T21:29:51.808Z,97448.13
2018-11-27T21:32:19.208Z,97450.44
2018-11-27T21:34:46.511Z,97462.55
2018-11-27T21:37:15.152Z,97460.98
2018-11-27T21:39:42.430Z,97458.67
2018-11-27T21:42:09.719Z,97454.50
2018-11-27T21:44:36.927Z,97454.20
2018-11-27T21:47:04.858Z,97452.91
2018-11-27T21:49:32.912Z,97449.53
2018-11-27T21:52:00.066Z,97458.61
2018-11-27T21:54:27.252Z,97463.59
2018-11-27T21:56:54.423Z,97464.09
2018-11-27T21:59:21.579Z,97458.39
2018-11-27T22:01:48.710Z,97455.98
2018-11-27T22:04:16.016Z,97459.83
2018-11-27T22:06:43.196Z,97469.43
2018-11-27T22:09:10.351Z,97464.66
2018-11-27T22:11:37.538Z,97465.25
2018-11-27T22:14:04.717Z,97464.09
2018-11-27T22:16:31.879Z,97465.76
2018-11-27T22:18:59.140Z,97465.80
2018-11-27T22:21:26.298Z,97468.95
2018-11-27T22:23:53.597Z,97466.04
2018-11-27T22:26:20.775Z,97469.34
2018-11-27T22:28:47.982Z,97466.31
2018-11-27T22:31:15.169Z,97462.23
2018-11-27T22:33:42.350Z,97467.27
2018-11-27T22:36:09.538Z,97470.81
2018-11-27T22:38:36.688Z,97477.08
2018-11-27T22:41:03.909Z,97487.63
2018-11-27T22:43:31.044Z,97394.54
2018-11-27T22:45:58.303Z,97480.31
2018-11-27T22:48:25.431Z,97481.66
2018-11-27T22:50:52.595Z,97481.23
2018-11-27T22:53:19.768Z,97485.20
2018-11-27T22:55:46.930Z,97482.79
2018-11-27T22:58:14.148Z,97481.61
2018-11-27T23:00:47.030Z,97485.60
2018-11-27T23:03:14.175Z,97485.07
2018-11-27T23:05:41.341Z,97487.30
2018-11-27T23:08:08.499Z,97489.39
2018-11-27T23:10:36.828Z,97489.41
2018-11-27T23:13:04.545Z,97487.47
2018-11-27T23:15:31.713Z,97487.37
2018-11-27T23:17:58.963Z,97481.31
2018-11-27T23:20:26.096Z,97485.55
2018-11-27T23:22:53.385Z,97482.50
2018-11-27T23:25:20.673Z,97481.59
2018-11-27T23:27:47.871Z,97476.23
2018-11-27T23:30:22.839Z,97474.63
2018-11-27T23:32:56.910Z,97471.48
2018-11-27T23:35:24.051Z,97469.67
2018-11-27T23:37:51.391Z,97466.88
2018-11-27T23:40:19.447Z,97463.44
2018-11-27T23:42:48.631Z,97468.02
2018-11-27T23:45:19.065Z,97462.11
2018-11-27T23:47:46.251Z,97458.42
2018-11-27T23:50:14.625Z,97460.09
2018-11-27T23:52:41.972Z,97463.98
2018-11-27T23:55:11.074Z,97465.73
2018-11-27T23:57:38.529Z,97460.99
